»·PEaware :: DAL811 KSBA-KSAN

DAL811 :: KSBA-KSAN

FLIGHT INFORMATION

Flight Status: Arrived
Operator:
Delta Air Lines
More flights by this operator :: More flights under this callsign
Pilot: Erik K. (18332)
Aircraft: BOEING 737-800
(B738)
More flights by this aircraft type
Origin: KSBA Santa Barbara Mun
United States
Destination: KSAN San Diego Intl-Lindbergh
United States
More flights between these airports :: More routes between these airports
Route: +KWANG VTU V208 SXC V208 LAX118 CARDI MZB320 MZB
File this flight plan on PilotEdge
Remarks:
Altitude:
(Current/Filed)
21,000ft
Speed:
(Current/Filed)
400kts
Departed: 03-Oct-18 09:51 AM
Arrived: 03-Oct-18 10:36 AM
Distance/Time
Traveled:
166nm/0:45
Distance/Time
To Go:
Arrived

Flight Plot

Page will automatically refresh every two minutes.


Map Options




Map Legend


Flown Route
Filed Route
Departure Airport
Arrival Airport
Navaid (VOR, NDB)
Fix

Horizontal Profiles

Position Reports

Time Latitude Longitude Heading Altitude Ground
Speed
03-Oct-18 09:24 34.424291 -119.837037 105 21ft 0kts
03-Oct-18 09:25 34.424291 -119.837037 105 21ft 0kts
03-Oct-18 09:26 34.424291 -119.837037 105 21ft 0kts
03-Oct-18 09:27 34.424291 -119.837037 105 21ft 0kts
03-Oct-18 09:28 34.424291 -119.837037 105 21ft 0kts
03-Oct-18 09:29 34.424291 -119.837037 105 21ft 0kts
03-Oct-18 09:30 34.424291 -119.837037 105 21ft 0kts
03-Oct-18 09:31 34.424291 -119.837037 105 21ft 0kts
03-Oct-18 09:32 34.424291 -119.837037 105 21ft 0kts
03-Oct-18 09:33 34.424291 -119.837037 105 21ft 0kts
03-Oct-18 09:34 34.424291 -119.837037 105 21ft 0kts
03-Oct-18 09:35 34.424291 -119.837037 105 21ft 0kts
03-Oct-18 09:36 34.424110 -119.837426 11 21ft 2kts
03-Oct-18 09:37 34.423617 -119.837301 344 21ft 0kts
03-Oct-18 09:38 34.423618 -119.837301 345 21ft 0kts
03-Oct-18 09:39 34.423618 -119.837301 345 21ft 0kts
03-Oct-18 09:40 34.423618 -119.837301 345 21ft 0kts
03-Oct-18 09:41 34.423618 -119.837301 345 21ft 0kts
03-Oct-18 09:42 34.423618 -119.837301 345 21ft 0kts
03-Oct-18 09:43 34.423618 -119.837301 345 21ft 0kts
03-Oct-18 09:44 34.423618 -119.837301 345 21ft 0kts
03-Oct-18 09:45 34.423618 -119.837301 345 21ft 0kts
03-Oct-18 09:46 34.424727 -119.837732 343 21ft 7kts
03-Oct-18 09:47 34.426668 -119.839303 266 21ft 13kts
03-Oct-18 09:48 34.426541 -119.845814 269 21ft 22kts
03-Oct-18 09:49 34.426410 -119.852705 268 21ft 11kts
03-Oct-18 09:50 34.426406 -119.853435 279 21ft 0kts
03-Oct-18 09:51 34.426406 -119.853435 279 21ft 0kts
03-Oct-18 09:52 34.427442 -119.854053 61 21ft 13kts
03-Oct-18 09:53 34.427668 -119.846989 88 21ft 92kts
03-Oct-18 09:54 34.424796 -119.801966 124 1308ft 156kts
03-Oct-18 09:55 34.382530 -119.752159 147 2798ft 257kts
03-Oct-18 09:56 34.321493 -119.714935 151 6689ft 258kts
03-Oct-18 09:57 34.257972 -119.675377 152 8857ft 264kts
03-Oct-18 09:58 34.197734 -119.636231 152 10701ft 269kts
03-Oct-18 09:59 34.136963 -119.588210 131 11042ft 278kts
03-Oct-18 10:00 34.083305 -119.505783 129 11023ft 356kts
03-Oct-18 10:01 34.022386 -119.411094 129 11016ft 362kts
03-Oct-18 10:02 33.964927 -119.321974 130 11020ft 361kts
03-Oct-18 10:03 33.904151 -119.228008 130 11024ft 362kts
03-Oct-18 10:04 33.883874 -119.196736 130 11031ft 371kts
03-Oct-18 10:05 33.832152 -119.117027 130 11029ft 373kts
03-Oct-18 10:06 33.770629 -119.022421 130 11029ft 373kts
03-Oct-18 10:07 33.719087 -118.943344 130 11033ft 372kts
03-Oct-18 10:08 33.647428 -118.833587 130 11067ft 350kts
03-Oct-18 10:09 33.584515 -118.737690 130 11065ft 377kts
03-Oct-18 10:10 33.530985 -118.656198 130 11064ft 377kts
03-Oct-18 10:11 33.467117 -118.559202 130 10985ft 377kts
03-Oct-18 10:12 33.402541 -118.461417 130 10981ft 377kts
03-Oct-18 10:13 33.364072 -118.349890 102 10981ft 387kts
03-Oct-18 10:14 33.349200 -118.229876 101 10977ft 387kts
03-Oct-18 10:15 33.332927 -118.104535 102 10972ft 387kts
03-Oct-18 10:16 33.316461 -117.979211 102 10999ft 387kts
03-Oct-18 10:17 33.302146 -117.870434 102 10997ft 387kts
03-Oct-18 10:18 33.285847 -117.746624 102 10998ft 386kts
03-Oct-18 10:19 33.272744 -117.657839 103 10998ft 386kts
03-Oct-18 10:20 33.235693 -117.543110 135 11011ft 375kts
03-Oct-18 10:21 33.164779 -117.455368 135 10994ft 375kts
03-Oct-18 10:22 33.082475 -117.388833 157 10988ft 371kts
03-Oct-18 10:23 32.993327 -117.340954 157 10987ft 372kts
03-Oct-18 10:24 32.907601 -117.293864 157 10941ft 374kts
03-Oct-18 10:25 32.822566 -117.246929 155 9357ft 365kts
03-Oct-18 10:26 32.766545 -117.165558 102 6986ft 361kts
03-Oct-18 10:27 32.766031 -117.053022 91 6984ft 364kts
03-Oct-18 10:28 32.765548 -116.939244 91 6968ft 344kts
03-Oct-18 10:29 32.763387 -116.834816 91 6975ft 290kts
03-Oct-18 10:30 32.713734 -116.795944 204 6864ft 234kts
03-Oct-18 10:31 32.687213 -116.852525 251 6209ft 191kts
03-Oct-18 10:32 32.669456 -116.910132 251 4988ft 190kts
03-Oct-18 10:33 32.674839 -116.964873 296 4231ft 187kts
03-Oct-18 10:34 32.691264 -117.021927 288 3313ft 190kts
03-Oct-18 10:35 32.704974 -117.076151 284 2394ft 188kts
03-Oct-18 10:36 32.718931 -117.131569 285 1361ft 189kts
03-Oct-18 10:37 32.732323 -117.184359 283 57ft 150kts
03-Oct-18 10:38 32.737382 -117.206556 180 25ft 9kts
03-Oct-18 10:39 32.736104 -117.204091 127 25ft 0kts
03-Oct-18 10:40 32.735751 -117.203521 126 25ft 0kts
03-Oct-18 10:41 32.735751 -117.203521 126 25ft 0kts
03-Oct-18 10:42 32.734573 -117.203418 227 25ft 2kts

Navigation Log

Ident Type
1. KSBA Airport
2. KWANG Fix
3. VTU Navaid
4. WEEZL Fix
5. SXC Navaid
6. CARDI Fix
7. MZB Navaid
8. KSAN Airport